Chepes, Argentina
Current Conditions -  °F | °C
As of 7:00 PM on Sunday 21 Dec 2014 (Local Time) from SACO Reporting Station
Broken Clouds Broken Clouds  
Wind Chill: 66°   Ceiling: 10000
Heat Index: 66°   Visibility: 6mi
Dew Point: 30°   Wind: 14mph
Humidity: 26%   Direction: 180°S
Pressure: 30"   Gusts: NA
Location:  31.35°S, 66.58°W
Report Text: SACO 212200Z 18012KT 9999 SCT030 BKN100 19/M01 Q1016
Loading
Personal Weather Stations






























Interactive Weather Map New forecast layout! Learn more

10-Day Weather Forecast

Advertisements
Track Severe Weather on mobile